sensor_id;sensor_type;location;lat;lon;timestamp;pressure;altitude;pressure_sealevel;temperature
77414;BMP280;66486;49.992;19.164;2023-11-18T00:01:17;98854.41;;;4.30
77414;BMP280;66486;49.992;19.164;2023-11-18T00:03:44;98848.69;;;4.28
77414;BMP280;66486;49.992;19.164;2023-11-18T00:06:10;98857.84;;;4.31
77414;BMP280;66486;49.992;19.164;2023-11-18T00:08:36;98855.63;;;4.36
77414;BMP280;66486;49.992;19.164;2023-11-18T00:11:02;98857.09;;;4.30
77414;BMP280;66486;49.992;19.164;2023-11-18T00:13:28;98844.00;;;4.18
77414;BMP280;66486;49.992;19.164;2023-11-18T00:15:55;98855.03;;;4.17
77414;BMP280;66486;49.992;19.164;2023-11-18T00:18:21;98857.69;;;4.13
77414;BMP280;66486;49.992;19.164;2023-11-18T00:20:46;98857.69;;;4.13
77414;BMP280;66486;49.992;19.164;2023-11-18T00:23:13;98861.53;;;4.19
77414;BMP280;66486;49.992;19.164;2023-11-18T00:25:38;98858.09;;;4.19
77414;BMP280;66486;49.992;19.164;2023-11-18T00:28:06;98860.91;;;4.33
77414;BMP280;66486;49.992;19.164;2023-11-18T00:30:34;98857.50;;;4.32
77414;BMP280;66486;49.992;19.164;2023-11-18T00:33:01;98867.72;;;4.30
77414;BMP280;66486;49.992;19.164;2023-11-18T00:35:27;98867.38;;;4.35
77414;BMP280;66486;49.992;19.164;2023-11-18T00:37:53;98871.94;;;4.31
77414;BMP280;66486;49.992;19.164;2023-11-18T00:40:18;98862.75;;;4.25
77414;BMP280;66486;49.992;19.164;2023-11-18T00:42:45;98872.66;;;4.28
77414;BMP280;66486;49.992;19.164;2023-11-18T00:45:11;98874.44;;;4.17
77414;BMP280;66486;49.992;19.164;2023-11-18T00:47:41;98882.16;;;4.29
77414;BMP280;66486;49.992;19.164;2023-11-18T00:50:07;98884.78;;;4.26
77414;BMP280;66486;49.992;19.164;2023-11-18T00:52:34;98879.38;;;4.19
77414;BMP280;66486;49.992;19.164;2023-11-18T00:55:00;98883.94;;;4.18
77414;BMP280;66486;49.992;19.164;2023-11-18T00:57:27;98883.63;;;4.23
77414;BMP280;66486;49.992;19.164;2023-11-18T00:59:53;98882.78;;;4.15
77414;BMP280;66486;49.992;19.164;2023-11-18T01:02:19;98872.13;;;4.15
77414;BMP280;66486;49.992;19.164;2023-11-18T01:04:45;98874.97;;;4.33
77414;BMP280;66486;49.992;19.164;2023-11-18T01:07:12;98870.75;;;4.25
77414;BMP280;66486;49.992;19.164;2023-11-18T01:09:38;98872.22;;;4.23
77414;BMP280;66486;49.992;19.164;2023-11-18T01:12:07;98865.44;;;4.29
77414;BMP280;66486;49.992;19.164;2023-11-18T01:14:39;98870.69;;;4.22
77414;BMP280;66486;49.992;19.164;2023-11-18T01:17:05;98876.84;;;4.29
77414;BMP280;66486;49.992;19.164;2023-11-18T01:19:32;98879.97;;;4.35
77414;BMP280;66486;49.992;19.164;2023-11-18T01:21:59;98871.47;;;4.26
77414;BMP280;66486;49.992;19.164;2023-11-18T01:24:25;98872.25;;;4.26
77414;BMP280;66486;49.992;19.164;2023-11-18T01:26:51;98869.94;;;4.21
77414;BMP280;66486;49.992;19.164;2023-11-18T01:29:17;98868.78;;;4.22
77414;BMP280;66486;49.992;19.164;2023-11-18T01:31:43;98863.44;;;4.22
77414;BMP280;66486;49.992;19.164;2023-11-18T01:34:09;98862.41;;;4.30
77414;BMP280;66486;49.992;19.164;2023-11-18T01:36:35;98866.19;;;4.29
77414;BMP280;66486;49.992;19.164;2023-11-18T01:39:01;98863.28;;;4.45
77414;BMP280;66486;49.992;19.164;2023-11-18T01:41:28;98870.16;;;4.46
77414;BMP280;66486;49.992;19.164;2023-11-18T01:43:58;98860.22;;;4.39
77414;BMP280;66486;49.992;19.164;2023-11-18T01:46:25;98860.97;;;4.40
77414;BMP280;66486;49.992;19.164;2023-11-18T01:48:52;98855.00;;;4.50
77414;BMP280;66486;49.992;19.164;2023-11-18T01:51:19;98857.97;;;4.45
77414;BMP280;66486;49.992;19.164;2023-11-18T01:53:47;98856.00;;;4.35
77414;BMP280;66486;49.992;19.164;2023-11-18T01:56:14;98856.34;;;4.33
77414;BMP280;66486;49.992;19.164;2023-11-18T01:58:40;98864.56;;;4.18
77414;BMP280;66486;49.992;19.164;2023-11-18T02:01:07;98865.50;;;4.32
77414;BMP280;66486;49.992;19.164;2023-11-18T02:03:34;98860.88;;;4.29
77414;BMP280;66486;49.992;19.164;2023-11-18T02:06:02;98860.34;;;4.17
77414;BMP280;66486;49.992;19.164;2023-11-18T02:08:31;98858.09;;;4.19
77414;BMP280;66486;49.992;19.164;2023-11-18T02:11:01;98871.44;;;4.22
77414;BMP280;66486;49.992;19.164;2023-11-18T02:13:32;98867.25;;;4.21
77414;BMP280;66486;49.992;19.164;2023-11-18T02:16:03;98865.81;;;4.27
77414;BMP280;66486;49.992;19.164;2023-11-18T02:18:30;98867.91;;;4.11
77414;BMP280;66486;49.992;19.164;2023-11-18T02:20:57;98869.44;;;4.12
77414;BMP280;66486;49.992;19.164;2023-11-18T02:23:23;98871.13;;;4.27
77414;BMP280;66486;49.992;19.164;2023-11-18T02:25:50;98871.09;;;4.24
77414;BMP280;66486;49.992;19.164;2023-11-18T02:28:16;98869.94;;;4.21
77414;BMP280;66486;49.992;19.164;2023-11-18T02:30:42;98874.53;;;4.24
77414;BMP280;66486;49.992;19.164;2023-11-18T02:33:19;98878.31;;;4.23
77414;BMP280;66486;49.992;19.164;2023-11-18T02:35:53;98888.59;;;4.25
77414;BMP280;66486;49.992;19.164;2023-11-18T02:38:29;98877.50;;;4.19
77414;BMP280;66486;49.992;19.164;2023-11-18T02:40:59;98878.22;;;4.16
77414;BMP280;66486;49.992;19.164;2023-11-18T02:43:28;98873.78;;;4.27
77414;BMP280;66486;49.992;19.164;2023-11-18T02:45:56;98879.88;;;4.28
77414;BMP280;66486;49.992;19.164;2023-11-18T02:48:23;98879.94;;;4.31
77414;BMP280;66486;49.992;19.164;2023-11-18T02:50:49;98876.72;;;4.19
77414;BMP280;66486;49.992;19.164;2023-11-18T02:53:15;98874.53;;;4.24
77414;BMP280;66486;49.992;19.164;2023-11-18T02:55:41;98884.34;;;4.20
77414;BMP280;66486;49.992;19.164;2023-11-18T02:58:07;98887.31;;;4.15
77414;BMP280;66486;49.992;19.164;2023-11-18T03:00:34;98891.88;;;4.14
77414;BMP280;66486;49.992;19.164;2023-11-18T03:03:00;98887.19;;;4.01
77414;BMP280;66486;49.992;19.164;2023-11-18T03:05:26;98892.59;;;4.08
77414;BMP280;66486;49.992;19.164;2023-11-18T03:07:52;98901.44;;;4.19
77414;BMP280;66486;49.992;19.164;2023-11-18T03:10:21;98901.03;;;4.13
77414;BMP280;66486;49.992;19.164;2023-11-18T03:12:51;98897.09;;;4.04
77414;BMP280;66486;49.992;19.164;2023-11-18T03:15:18;98909.41;;;4.15
77414;BMP280;66486;49.992;19.164;2023-11-18T03:17:51;98912.41;;;4.10
77414;BMP280;66486;49.992;19.164;2023-11-18T03:20:19;98917.75;;;4.10
77414;BMP280;66486;49.992;19.164;2023-11-18T03:22:49;98910.88;;;4.09
77414;BMP280;66486;49.992;19.164;2023-11-18T03:25:16;98915.34;;;4.02
77414;BMP280;66486;49.992;19.164;2023-11-18T03:27:43;98907.75;;;4.04
77414;BMP280;66486;49.992;19.164;2023-11-18T03:30:11;98911.84;;;3.98
77414;BMP280;66486;49.992;19.164;2023-11-18T03:32:38;98914.13;;;3.96
77414;BMP280;66486;49.992;19.164;2023-11-18T03:35:05;98921.72;;;3.97
77414;BMP280;66486;49.992;19.164;2023-11-18T03:37:41;98911.59;;;4.06
77414;BMP280;66486;49.992;19.164;2023-11-18T03:40:12;98915.38;;;4.05
77414;BMP280;66486;49.992;19.164;2023-11-18T03:42:42;98912.69;;;4.02
77414;BMP280;66486;49.992;19.164;2023-11-18T03:45:08;98914.19;;;3.99
77414;BMP280;66486;49.992;19.164;2023-11-18T03:47:37;98925.22;;;4.01
77414;BMP280;66486;49.992;19.164;2023-11-18T03:50:04;98926.34;;;4.00
77414;BMP280;66486;49.992;19.164;2023-11-18T03:52:30;98923.41;;;4.09
77414;BMP280;66486;49.992;19.164;2023-11-18T03:54:56;98916.84;;;3.99
77414;BMP280;66486;49.992;19.164;2023-11-18T03:57:22;98925.94;;;3.98
77414;BMP280;66486;49.992;19.164;2023-11-18T03:59:48;98927.91;;;4.05
77414;BMP280;66486;49.992;19.164;2023-11-18T04:02:14;98924.91;;;4.06
77414;BMP280;66486;49.992;19.164;2023-11-18T04:04:40;98925.22;;;4.01
77414;BMP280;66486;49.992;19.164;2023-11-18T04:07:06;98927.91;;;4.05
77414;BMP280;66486;49.992;19.164;2023-11-18T04:09:32;98919.88;;;4.01
77414;BMP280;66486;49.992;19.164;2023-11-18T04:11:58;98922.28;;;4.10
77414;BMP280;66486;49.992;19.164;2023-11-18T04:14:25;98926.81;;;4.06
77414;BMP280;66486;49.992;19.164;2023-11-18T04:16:51;98913.84;;;4.04
77414;BMP280;66486;49.992;19.164;2023-11-18T04:19:18;98925.00;;;4.13
77414;BMP280;66486;49.992;19.164;2023-11-18T04:21:43;98908.28;;;4.17
77414;BMP280;66486;49.992;19.164;2023-11-18T04:24:14;98929.47;;;4.06
77414;BMP280;66486;49.992;19.164;2023-11-18T04:26:41;98930.19;;;4.03
77414;BMP280;66486;49.992;19.164;2023-11-18T04:29:07;98926.00;;;4.02
77414;BMP280;66486;49.992;19.164;2023-11-18T04:31:34;98935.28;;;4.19
77414;BMP280;66486;49.992;19.164;2023-11-18T04:34:00;98931.84;;;4.18
77414;BMP280;66486;49.992;19.164;2023-11-18T04:36:26;98934.63;;;4.25
77414;BMP280;66486;49.992;19.164;2023-11-18T04:38:52;98933.03;;;4.21
77414;BMP280;66486;49.992;19.164;2023-11-18T04:41:18;98939.03;;;4.10
77414;BMP280;66486;49.992;19.164;2023-11-18T04:43:44;98928.72;;;4.09
77414;BMP280;66486;49.992;19.164;2023-11-18T04:46:11;98945.13;;;4.14
77414;BMP280;66486;49.992;19.164;2023-11-18T04:48:37;98930.28;;;4.10
77414;BMP280;66486;49.992;19.164;2023-11-18T04:51:03;98931.00;;;4.07
77414;BMP280;66486;49.992;19.164;2023-11-18T04:53:30;98934.97;;;4.24
77414;BMP280;66486;49.992;19.164;2023-11-18T04:55:56;98933.66;;;4.07
77414;BMP280;66486;49.992;19.164;2023-11-18T04:58:22;98936.59;;;3.98
77414;BMP280;66486;49.992;19.164;2023-11-18T05:00:47;98941.13;;;3.98
77414;BMP280;66486;49.992;19.164;2023-11-18T05:03:13;98934.41;;;4.07
77414;BMP280;66486;49.992;19.164;2023-11-18T05:05:40;98945.16;;;4.18
77414;BMP280;66486;49.992;19.164;2023-11-18T05:08:07;98931.41;;;4.09
77414;BMP280;66486;49.992;19.164;2023-11-18T05:10:34;98945.09;;;4.11
77414;BMP280;66486;49.992;19.164;2023-11-18T05:13:01;98941.69;;;4.10
77414;BMP280;66486;49.992;19.164;2023-11-18T05:15:27;98943.31;;;4.22
77414;BMP280;66486;49.992;19.164;2023-11-18T05:17:54;98950.91;;;4.20
77414;BMP280;66486;49.992;19.164;2023-11-18T05:20:21;98948.19;;;4.13
77414;BMP280;66486;49.992;19.164;2023-11-18T05:22:47;98949.63;;;4.07
77414;BMP280;66486;49.992;19.164;2023-11-18T05:25:14;98949.22;;;4.05
77414;BMP280;66486;49.992;19.164;2023-11-18T05:27:40;98948.97;;;4.17
77414;BMP280;66486;49.992;19.164;2023-11-18T05:30:07;98949.69;;;4.14
77414;BMP280;66486;49.992;19.164;2023-11-18T05:32:34;98940.94;;;4.10
77414;BMP280;66486;49.992;19.164;2023-11-18T05:35:00;98946.56;;;4.05
77414;BMP280;66486;49.992;19.164;2023-11-18T05:37:26;98954.44;;;3.98
77414;BMP280;66486;49.992;19.164;2023-11-18T05:40:04;98953.66;;;3.97
77414;BMP280;66486;49.992;19.164;2023-11-18T05:42:34;98955.34;;;4.09
77414;BMP280;66486;49.992;19.164;2023-11-18T05:45:06;98952.41;;;4.18
77414;BMP280;66486;49.992;19.164;2023-11-18T05:47:33;98952.75;;;4.16
77414;BMP280;66486;49.992;19.164;2023-11-18T05:50:02;98957.34;;;4.19
77414;BMP280;66486;49.992;19.164;2023-11-18T05:52:31;98963.50;;;4.23
77414;BMP280;66486;49.992;19.164;2023-11-18T05:54:57;98960.44;;;4.21
77414;BMP280;66486;49.992;19.164;2023-11-18T05:57:23;98961.13;;;4.18
77414;BMP280;66486;49.992;19.164;2023-11-18T05:59:52;98964.94;;;4.13
77414;BMP280;66486;49.992;19.164;2023-11-18T06:02:20;98957.72;;;4.18
77414;BMP280;66486;49.992;19.164;2023-11-18T06:04:47;98961.94;;;4.22
77414;BMP280;66486;49.992;19.164;2023-11-18T06:07:13;98971.94;;;4.29
77414;BMP280;66486;49.992;19.164;2023-11-18T06:09:40;98970.84;;;4.33
77414;BMP280;66486;49.992;19.164;2023-11-18T06:12:08;98968.13;;;4.30
77414;BMP280;66486;49.992;19.164;2023-11-18T06:14:37;98968.09;;;4.26
77414;BMP280;66486;49.992;19.164;2023-11-18T06:17:03;98968.47;;;4.25
77414;BMP280;66486;49.992;19.164;2023-11-18T06:19:29;98965.09;;;4.28
77414;BMP280;66486;49.992;19.164;2023-11-18T06:21:56;98977.72;;;4.38
77414;BMP280;66486;49.992;19.164;2023-11-18T06:24:21;98980.09;;;4.43
77414;BMP280;66486;49.992;19.164;2023-11-18T06:26:48;98984.34;;;4.47
77414;BMP280;66486;49.992;19.164;2023-11-18T06:29:15;98982.19;;;4.27
77414;BMP280;66486;49.992;19.164;2023-11-18T06:31:42;98989.47;;;4.33
77414;BMP280;66486;49.992;19.164;2023-11-18T06:34:08;98995.44;;;4.23
77414;BMP280;66486;49.992;19.164;2023-11-18T06:36:35;99002.97;;;4.18
77414;BMP280;66486;49.992;19.164;2023-11-18T06:39:01;98998.91;;;4.27
77414;BMP280;66486;49.992;19.164;2023-11-18T06:41:27;98995.09;;;4.25
77414;BMP280;66486;49.992;19.164;2023-11-18T06:43:59;98999.13;;;4.15
77414;BMP280;66486;49.992;19.164;2023-11-18T06:46:35;99022.88;;;4.27
77414;BMP280;66486;49.992;19.164;2023-11-18T06:49:05;99015.25;;;4.26
77414;BMP280;66486;49.992;19.164;2023-11-18T06:51:36;99017.84;;;4.22
77414;BMP280;66486;49.992;19.164;2023-11-18T06:54:06;99034.56;;;4.19
77414;BMP280;66486;49.992;19.164;2023-11-18T06:56:37;99035.63;;;4.14
77414;BMP280;66486;49.992;19.164;2023-11-18T06:59:05;99033.72;;;4.15
77414;BMP280;66486;49.992;19.164;2023-11-18T07:01:33;99036.81;;;4.13
77414;BMP280;66486;49.992;19.164;2023-11-18T07:04:02;99042.41;;;4.08
77414;BMP280;66486;49.992;19.164;2023-11-18T07:06:29;99041.84;;;3.96
77414;BMP280;66486;49.992;19.164;2023-11-18T07:08:55;99041.34;;;4.13
77414;BMP280;66486;49.992;19.164;2023-11-18T07:11:26;99046.50;;;4.02
77414;BMP280;66486;49.992;19.164;2023-11-18T07:13:52;99052.63;;;4.03
77414;BMP280;66486;49.992;19.164;2023-11-18T07:16:24;99060.34;;;4.15
77414;BMP280;66486;49.992;19.164;2023-11-18T07:18:50;99066.22;;;3.98
77414;BMP280;66486;49.992;19.164;2023-11-18T07:21:18;99071.25;;;4.03
77414;BMP280;66486;49.992;19.164;2023-11-18T07:23:44;99073.59;;;4.08
77414;BMP280;66486;49.992;19.164;2023-11-18T07:26:10;99070.91;;;4.08
77414;BMP280;66486;49.992;19.164;2023-11-18T07:28:36;99079.53;;;3.98
77414;BMP280;66486;49.992;19.164;2023-11-18T07:31:03;99082.50;;;3.93
77414;BMP280;66486;49.992;19.164;2023-11-18T07:33:30;99080.06;;;4.07
77414;BMP280;66486;49.992;19.164;2023-11-18T07:36:00;99080.41;;;4.05
77414;BMP280;66486;49.992;19.164;2023-11-18T07:38:26;99078.13;;;4.07
77414;BMP280;66486;49.992;19.164;2023-11-18T07:40:53;99083.88;;;4.09
77414;BMP280;66486;49.992;19.164;2023-11-18T07:43:22;99088.78;;;4.34
77414;BMP280;66486;49.992;19.164;2023-11-18T07:45:49;99090.03;;;4.13
77414;BMP280;66486;49.992;19.164;2023-11-18T07:48:18;99083.50;;;4.11
77414;BMP280;66486;49.992;19.164;2023-11-18T07:50:47;99095.94;;;4.03
77414;BMP280;66486;49.992;19.164;2023-11-18T07:53:14;99105.00;;;3.99
77414;BMP280;66486;49.992;19.164;2023-11-18T07:55:40;99106.28;;;4.08
77414;BMP280;66486;49.992;19.164;2023-11-18T07:58:06;99102.47;;;4.06
77414;BMP280;66486;49.992;19.164;2023-11-18T08:00:43;99093.84;;;4.16
77414;BMP280;66486;49.992;19.164;2023-11-18T08:03:11;99095.16;;;4.29
77414;BMP280;66486;49.992;19.164;2023-11-18T08:05:38;99088.88;;;4.14
77414;BMP280;66486;49.992;19.164;2023-11-18T08:08:08;99078.63;;;4.13
77414;BMP280;66486;49.992;19.164;2023-11-18T08:10:37;99094.88;;;4.34
77414;BMP280;66486;49.992;19.164;2023-11-18T08:13:07;99097.16;;;4.36
77414;BMP280;66486;49.992;19.164;2023-11-18T08:15:34;99102.03;;;4.30
77414;BMP280;66486;49.992;19.164;2023-11-18T08:18:03;99097.44;;;4.27
77414;BMP280;66486;49.992;19.164;2023-11-18T08:20:29;99102.09;;;4.34
77414;BMP280;66486;49.992;19.164;2023-11-18T08:22:56;99104.75;;;4.34
77414;BMP280;66486;49.992;19.164;2023-11-18T08:25:22;99095.88;;;4.56
77414;BMP280;66486;49.992;19.164;2023-11-18T08:27:49;99106.91;;;4.54
77414;BMP280;66486;49.992;19.164;2023-11-18T08:30:16;99111.44;;;4.50
77414;BMP280;66486;49.992;19.164;2023-11-18T08:32:45;99102.25;;;4.48
77414;BMP280;66486;49.992;19.164;2023-11-18T08:35:15;99108.88;;;4.57
77414;BMP280;66486;49.992;19.164;2023-11-18T08:37:42;99109.34;;;4.66
77414;BMP280;66486;49.992;19.164;2023-11-18T08:40:17;99099.91;;;4.73
77414;BMP280;66486;49.992;19.164;2023-11-18T08:42:50;99112.78;;;4.67
77414;BMP280;66486;49.992;19.164;2023-11-18T08:45:17;99099.31;;;4.53
77414;BMP280;66486;49.992;19.164;2023-11-18T08:47:45;99115.78;;;4.62
77414;BMP280;66486;49.992;19.164;2023-11-18T08:50:16;99105.88;;;4.33
77414;BMP280;66486;49.992;19.164;2023-11-18T08:52:43;99110.53;;;4.39
77414;BMP280;66486;49.992;19.164;2023-11-18T08:55:13;99121.13;;;4.36
77414;BMP280;66486;49.992;19.164;2023-11-18T08:57:47;99122.91;;;4.54
77414;BMP280;66486;49.992;19.164;2023-11-18T09:00:27;99130.41;;;4.45
77414;BMP280;66486;49.992;19.164;2023-11-18T09:03:28;99136.50;;;4.46
77414;BMP280;66486;49.992;19.164;2023-11-18T09:06:02;99142.47;;;4.65
77414;BMP280;66486;49.992;19.164;2023-11-18T09:08:36;99144.66;;;4.60
77414;BMP280;66486;49.992;19.164;2023-11-18T09:11:09;99150.47;;;4.39
77414;BMP280;66486;49.992;19.164;2023-11-18T09:13:42;99148.22;;;4.41
77414;BMP280;66486;49.992;19.164;2023-11-18T09:16:08;99145.59;;;4.45
77414;BMP280;66486;49.992;19.164;2023-11-18T09:18:36;99156.63;;;4.43
77414;BMP280;66486;49.992;19.164;2023-11-18T09:21:02;99146.59;;;4.33
77414;BMP280;66486;49.992;19.164;2023-11-18T09:23:31;99156.75;;;4.54
77414;BMP280;66486;49.992;19.164;2023-11-18T09:26:07;99172.28;;;4.48
77414;BMP280;66486;49.992;19.164;2023-11-18T09:28:37;99163.72;;;4.32
77414;BMP280;66486;49.992;19.164;2023-11-18T09:31:04;99167.19;;;4.36
77414;BMP280;66486;49.992;19.164;2023-11-18T09:33:32;99172.16;;;4.15
77414;BMP280;66486;49.992;19.164;2023-11-18T09:36:02;99181.00;;;3.96
77414;BMP280;66486;49.992;19.164;2023-11-18T09:38:30;99181.25;;;3.88
77414;BMP280;66486;49.992;19.164;2023-11-18T09:41:00;99184.56;;;3.81
77414;BMP280;66486;49.992;19.164;2023-11-18T09:43:31;99188.56;;;3.72
77414;BMP280;66486;49.992;19.164;2023-11-18T09:46:14;99146.16;;;3.37
77414;BMP280;66486;49.992;19.164;2023-11-18T09:48:51;99187.34;;;3.66
77414;BMP280;66486;49.992;19.164;2023-11-18T09:51:27;99192.41;;;3.74
77414;BMP280;66486;49.992;19.164;2023-11-18T09:54:00;99196.09;;;3.66
77414;BMP280;66486;49.992;19.164;2023-11-18T09:56:30;99193.63;;;3.57
77414;BMP280;66486;49.992;19.164;2023-11-18T09:59:27;99193.22;;;3.78
77414;BMP280;66486;49.992;19.164;2023-11-18T10:01:57;99199.97;;;3.72
77414;BMP280;66486;49.992;19.164;2023-11-18T10:04:24;99199.16;;;3.68
77414;BMP280;66486;49.992;19.164;2023-11-18T10:06:54;99215.72;;;3.39
77414;BMP280;66486;49.992;19.164;2023-11-18T10:09:24;99213.53;;;3.25
77414;BMP280;66486;49.992;19.164;2023-11-18T10:12:09;99217.38;;;3.47
77414;BMP280;66486;49.992;19.164;2023-11-18T10:14:42;99221.06;;;3.62
77414;BMP280;66486;49.992;19.164;2023-11-18T10:17:09;99208.03;;;3.56
77414;BMP280;66486;49.992;19.164;2023-11-18T10:19:57;99214.44;;;3.52
77414;BMP280;66486;49.992;19.164;2023-11-18T10:22:29;99219.31;;;3.50
77414;BMP280;66486;49.992;19.164;2023-11-18T10:24:58;99229.13;;;3.27
77414;BMP280;66486;49.992;19.164;2023-11-18T10:27:27;99222.06;;;3.34
77414;BMP280;66486;49.992;19.164;2023-11-18T10:30:04;99223.09;;;2.91
77414;BMP280;66486;49.992;19.164;2023-11-18T10:32:31;99238.03;;;2.65
77414;BMP280;66486;49.992;19.164;2023-11-18T10:35:03;99237.88;;;2.58
77414;BMP280;66486;49.992;19.164;2023-11-18T10:37:36;99241.84;;;2.48
77414;BMP280;66486;49.992;19.164;2023-11-18T10:40:08;99244.56;;;2.51
77414;BMP280;66486;49.992;19.164;2023-11-18T10:42:35;99251.66;;;2.63
77414;BMP280;66486;49.992;19.164;2023-11-18T10:45:02;99246.00;;;2.65
77414;BMP280;66486;49.992;19.164;2023-11-18T10:47:33;99243.50;;;2.87
77414;BMP280;66486;49.992;19.164;2023-11-18T10:50:01;99233.47;;;2.81
77414;BMP280;66486;49.992;19.164;2023-11-18T10:52:27;99257.47;;;2.84
77414;BMP280;66486;49.992;19.164;2023-11-18T10:55:01;99256.38;;;2.85
77414;BMP280;66486;49.992;19.164;2023-11-18T10:57:37;99259.38;;;3.03
77414;BMP280;66486;49.992;19.164;2023-11-18T11:00:05;99272.03;;;2.90
77414;BMP280;66486;49.992;19.164;2023-11-18T11:02:57;99273.38;;;3.00
77414;BMP280;66486;49.992;19.164;2023-11-18T11:05:30;99271.44;;;3.16
77414;BMP280;66486;49.992;19.164;2023-11-18T11:08:02;99277.13;;;2.99
77414;BMP280;66486;49.992;19.164;2023-11-18T11:10:33;99272.16;;;2.97
77414;BMP280;66486;49.992;19.164;2023-11-18T11:13:02;99280.66;;;3.03
77414;BMP280;66486;49.992;19.164;2023-11-18T11:15:31;99284.78;;;3.00
77414;BMP280;66486;49.992;19.164;2023-11-18T11:18:05;99296.44;;;2.96
77414;BMP280;66486;49.992;19.164;2023-11-18T11:20:42;99293.41;;;2.97
77414;BMP280;66486;49.992;19.164;2023-11-18T11:23:17;99294.44;;;3.08
77414;BMP280;66486;49.992;19.164;2023-11-18T11:28:42;99290.47;;;2.68
77414;BMP280;66486;49.992;19.164;2023-11-18T11:31:26;99297.84;;;2.74
77414;BMP280;66486;49.992;19.164;2023-11-18T11:34:17;99297.69;;;2.51
77414;BMP280;66486;49.992;19.164;2023-11-18T11:36:51;99304.88;;;2.82
77414;BMP280;66486;49.992;19.164;2023-11-18T11:39:19;99302.13;;;2.47
77414;BMP280;66486;49.992;19.164;2023-11-18T11:41:52;99315.56;;;2.70
77414;BMP280;66486;49.992;19.164;2023-11-18T11:44:20;99316.25;;;2.83
77414;BMP280;66486;49.992;19.164;2023-11-18T11:46:47;99325.31;;;2.66
77414;BMP280;66486;49.992;19.164;2023-11-18T11:49:23;99333.84;;;2.56
77414;BMP280;66486;49.992;19.164;2023-11-18T11:52:09;99335.34;;;2.57
77414;BMP280;66486;49.992;19.164;2023-11-18T11:55:02;99325.00;;;2.52
77414;BMP280;66486;49.992;19.164;2023-11-18T11:57:32;99335.94;;;2.66
77414;BMP280;66486;49.992;19.164;2023-11-18T12:00:09;99339.88;;;2.72
77414;BMP280;66486;49.992;19.164;2023-11-18T12:02:51;99341.59;;;2.65
77414;BMP280;66486;49.992;19.164;2023-11-18T12:05:24;99345.13;;;2.53
77414;BMP280;66486;49.992;19.164;2023-11-18T12:07:55;99352.41;;;2.56
77414;BMP280;66486;49.992;19.164;2023-11-18T12:10:26;99346.56;;;2.66
77414;BMP280;66486;49.992;19.164;2023-11-18T12:13:09;99353.19;;;2.88
77414;BMP280;66486;49.992;19.164;2023-11-18T12:15:49;99357.53;;;2.65
77414;BMP280;66486;49.992;19.164;2023-11-18T12:21:55;99370.66;;;2.73
77414;BMP280;66486;49.992;19.164;2023-11-18T12:24:21;99367.56;;;2.87
77414;BMP280;66486;49.992;19.164;2023-11-18T12:26:48;99368.25;;;2.68
77414;BMP280;66486;49.992;19.164;2023-11-18T12:29:32;99370.16;;;2.68
77414;BMP280;66486;49.992;19.164;2023-11-18T12:32:00;99371.25;;;2.67
77414;BMP280;66486;49.992;19.164;2023-11-18T12:34:52;99377.56;;;2.93
77414;BMP280;66486;49.992;19.164;2023-11-18T12:43:00;99382.84;;;2.90
77414;BMP280;66486;49.992;19.164;2023-11-18T12:45:50;99377.50;;;2.90
77414;BMP280;66486;49.992;19.164;2023-11-18T12:48:23;99383.34;;;2.80
77414;BMP280;66486;49.992;19.164;2023-11-18T12:50:55;99381.00;;;2.63
77414;BMP280;66486;49.992;19.164;2023-11-18T12:53:23;99390.09;;;2.62
77414;BMP280;66486;49.992;19.164;2023-11-18T12:55:50;99394.47;;;2.70
77414;BMP280;66486;49.992;19.164;2023-11-18T12:58:17;99394.50;;;2.85
77414;BMP280;66486;49.992;19.164;2023-11-18T13:00:44;99398.19;;;2.81
77414;BMP280;66486;49.992;19.164;2023-11-18T13:03:11;99395.59;;;2.84
77414;BMP280;66486;49.992;19.164;2023-11-18T13:05:43;99394.91;;;3.03
77414;BMP280;66486;49.992;19.164;2023-11-18T13:08:11;99398.25;;;3.00
77414;BMP280;66486;49.992;19.164;2023-11-18T13:10:41;99398.59;;;3.14
77414;BMP280;66486;49.992;19.164;2023-11-18T13:13:07;99399.59;;;2.94
77414;BMP280;66486;49.992;19.164;2023-11-18T13:15:36;99407.09;;;3.04
77414;BMP280;66486;49.992;19.164;2023-11-18T13:18:04;99408.34;;;2.79
77414;BMP280;66486;49.992;19.164;2023-11-18T13:20:33;99416.94;;;2.88
77414;BMP280;66486;49.992;19.164;2023-11-18T13:23:02;99420.34;;;2.73
77414;BMP280;66486;49.992;19.164;2023-11-18T13:25:35;99423.34;;;2.71
77414;BMP280;66486;49.992;19.164;2023-11-18T13:28:04;99419.66;;;2.60
77414;BMP280;66486;49.992;19.164;2023-11-18T13:30:31;99432.06;;;2.72
77414;BMP280;66486;49.992;19.164;2023-11-18T13:32:59;99441.50;;;2.69
77414;BMP280;66486;49.992;19.164;2023-11-18T13:35:26;99455.97;;;2.72
77414;BMP280;66486;49.992;19.164;2023-11-18T13:37:54;99455.78;;;2.65
77414;BMP280;66486;49.992;19.164;2023-11-18T13:40:20;99441.06;;;2.67
77414;BMP280;66486;49.992;19.164;2023-11-18T13:42:46;99439.63;;;2.70
77414;BMP280;66486;49.992;19.164;2023-11-18T13:45:13;99450.34;;;2.73
77414;BMP280;66486;49.992;19.164;2023-11-18T13:47:52;99458.31;;;2.73
77414;BMP280;66486;49.992;19.164;2023-11-18T13:50:18;99451.06;;;2.86
77414;BMP280;66486;49.992;19.164;2023-11-18T13:52:46;99449.16;;;2.86
77414;BMP280;66486;49.992;19.164;2023-11-18T13:55:15;99458.72;;;2.75
77414;BMP280;66486;49.992;19.164;2023-11-18T13:57:54;99468.84;;;2.70
77414;BMP280;66486;49.992;19.164;2023-11-18T14:00:24;99467.91;;;2.62
77414;BMP280;66486;49.992;19.164;2023-11-18T14:02:56;99480.28;;;2.86
77414;BMP280;66486;49.992;19.164;2023-11-18T14:05:23;99488.78;;;2.64
77414;BMP280;66486;49.992;19.164;2023-11-18T14:07:53;99477.91;;;2.69
77414;BMP280;66486;49.992;19.164;2023-11-18T14:10:25;99489.72;;;2.56
77414;BMP280;66486;49.992;19.164;2023-11-18T14:13:05;99485.28;;;2.60
77414;BMP280;66486;49.992;19.164;2023-11-18T14:15:34;99471.31;;;2.63
77414;BMP280;66486;49.992;19.164;2023-11-18T14:18:04;99483.72;;;2.59
77414;BMP280;66486;49.992;19.164;2023-11-18T14:20:33;99473.25;;;2.50
77414;BMP280;66486;49.992;19.164;2023-11-18T14:23:02;99487.75;;;2.68
77414;BMP280;66486;49.992;19.164;2023-11-18T14:25:30;99473.28;;;2.66
77414;BMP280;66486;49.992;19.164;2023-11-18T14:27:56;99492.31;;;2.68
77414;BMP280;66486;49.992;19.164;2023-11-18T14:30:23;99495.16;;;2.75
77414;BMP280;66486;49.992;19.164;2023-11-18T14:32:52;99486.84;;;2.76